Time;durP1;ratioP1;P1;durP2;ratioP2;P2;SDS_P1;SDS_P2;PMS_P1;PMS_P2;Temp;Humidity;BMP_temperature;BMP_pressure;BME280_temperature;BME280_humidity;BME280_pressure;Samples;Min_cycle;Max_cycle;Signal;HPM_P1;HPM_P2
2022/08/10 00:02:40;;;;;;;2.85;2.30;;;21.40;92.30;;;;;;5052798;28;20441;-72
2022/08/10 00:05:06;;;;;;;7.20;2.58;;;21.30;92.80;;;;;;5062484;28;20036;-72
2022/08/10 00:07:32;;;;;;;2.83;2.58;;;21.30;93.20;;;;;;5055797;28;20147;-72
2022/08/10 00:09:58;;;;;;;2.60;2.40;;;21.20;93.50;;;;;;5057027;28;20029;-72
2022/08/10 00:12:26;;;;;;;8.25;2.55;;;21.10;94.00;;;;;;5062642;28;20113;-73
2022/08/10 00:14:54;;;;;;;2.95;2.67;;;21.10;94.40;;;;;;5064233;28;20040;-72
2022/08/10 00:17:19;;;;;;;7.53;2.65;;;21.10;94.60;;;;;;5058239;28;20029;-72
2022/08/10 00:19:47;;;;;;;2.83;2.63;;;21.00;94.90;;;;;;5064014;28;20462;-72
2022/08/10 00:22:13;;;;;;;4.82;2.13;;;21.00;95.10;;;;;;5060770;28;20569;-72
2022/08/10 00:24:39;;;;;;;2.15;2.00;;;21.00;95.50;;;;;;5063651;28;20039;-72
2022/08/10 00:27:04;;;;;;;6.50;2.45;;;21.00;95.70;;;;;;5060682;28;20095;-72
2022/08/10 00:29:30;;;;;;;5.28;2.30;;;20.90;96.10;;;;;;5064538;28;20100;-72
2022/08/10 00:31:56;;;;;;;2.80;2.42;;;20.90;96.40;;;;;;5057608;28;20135;-72
2022/08/10 00:34:21;;;;;;;3.85;2.53;;;20.80;96.80;;;;;;5059966;28;20044;-72
2022/08/10 00:36:47;;;;;;;3.28;2.45;;;20.80;97.00;;;;;;5061224;28;20021;-71
2022/08/10 00:39:13;;;;;;;3.13;2.72;;;20.80;97.30;;;;;;5066326;28;20385;-72
2022/08/10 00:41:45;;;;;;;9.32;2.65;;;20.70;97.70;;;;;;5065137;28;20039;-71
2022/08/10 00:44:11;;;;;;;6.28;3.10;;;20.70;97.90;;;;;;5063336;28;20039;-72
2022/08/10 00:46:37;;;;;;;2.85;2.58;;;20.70;98.00;;;;;;5057996;28;20028;-71
2022/08/10 00:49:04;;;;;;;3.78;2.67;;;20.60;98.40;;;;;;5061275;28;20119;-73
2022/08/10 00:51:30;;;;;;;3.97;2.65;;;20.60;98.80;;;;;;5055132;28;20104;-72
2022/08/10 00:53:56;;;;;;;4.03;2.33;;;20.50;99.10;;;;;;5057851;28;20112;-72
2022/08/10 00:56:22;;;;;;;2.60;2.33;;;20.50;99.30;;;;;;5060954;28;20031;-72
2022/08/10 00:58:50;;;;;;;2.83;2.63;;;20.40;99.60;;;;;;5064347;28;20030;-72
2022/08/10 01:01:15;;;;;;;2.90;2.70;;;20.40;99.70;;;;;;5058098;28;20466;-72
2022/08/10 01:03:41;;;;;;;5.85;2.60;;;20.40;99.90;;;;;;5058769;28;20146;-72
2022/08/10 01:06:22;;;;;;;2.95;2.42;;;20.40;99.90;;;;;;5059913;28;20035;-72
2022/08/10 01:08:59;;;;;;;5.68;2.92;;;20.40;99.90;;;;;;5057624;28;20077;-72
2022/08/10 01:11:34;;;;;;;2.90;2.70;;;20.30;99.90;;;;;;5061939;28;20710;-71
2022/08/10 01:14:45;;;;;;;3.38;3.08;;;20.20;99.90;;;;;;5059446;28;20720;-71
2022/08/10 01:17:49;;;;;;;5.18;3.30;;;20.20;99.90;;;;;;5034628;28;20047;-72
2022/08/10 01:20:23;;;;;;;6.15;3.13;;;20.20;99.90;;;;;;5064359;28;20039;-71
2022/08/10 01:22:58;;;;;;;5.03;3.03;;;20.10;99.90;;;;;;5060346;28;20017;-71
2022/08/10 01:25:54;;;;;;;4.40;3.30;;;20.00;99.90;;;;;;5059512;28;20021;-72
2022/08/10 01:28:42;;;;;;;3.22;2.80;;;20.00;99.90;;;;;;5058571;28;20031;-72
2022/08/10 01:31:13;;;;;;;5.20;2.85;;;20.00;99.90;;;;;;5061836;28;20083;-73
2022/08/10 01:33:52;;;;;;;3.17;2.92;;;20.00;99.90;;;;;;5064675;28;20046;-73
2022/08/10 01:36:29;;;;;;;4.47;2.83;;;19.90;99.90;;;;;;5065783;28;20025;-71
2022/08/10 01:38:59;;;;;;;3.08;2.80;;;19.90;99.90;;;;;;5060721;28;20029;-72
2022/08/10 01:41:30;;;;;;;4.47;3.35;;;19.90;99.90;;;;;;5062657;28;20031;-70
2022/08/10 01:44:01;;;;;;;3.38;2.83;;;19.80;99.90;;;;;;5059177;28;20029;-72
2022/08/10 01:46:30;;;;;;;4.45;2.88;;;19.80;99.90;;;;;;5062859;28;20017;-71
2022/08/10 01:48:58;;;;;;;4.13;3.13;;;19.80;99.90;;;;;;5068075;28;20445;-72
2022/08/10 01:51:35;;;;;;;3.08;2.78;;;19.80;99.90;;;;;;5057761;28;20029;-72
2022/08/10 01:54:11;;;;;;;3.55;3.25;;;19.80;99.90;;;;;;5061206;28;20155;-69
2022/08/10 01:56:43;;;;;;;7.03;3.15;;;19.70;99.90;;;;;;5062882;28;20036;-76
2022/08/10 01:59:17;;;;;;;5.75;3.28;;;19.70;99.90;;;;;;5062901;28;20052;-76
2022/08/10 02:02:10;;;;;;;5.07;3.15;;;19.70;99.90;;;;;;5059861;28;20381;-76
2022/08/10 02:04:39;;;;;;;3.22;2.95;;;19.60;99.90;;;;;;5064025;28;20580;-76
2022/08/10 02:07:08;;;;;;;5.10;3.17;;;19.60;99.90;;;;;;5064500;28;20144;-74
2022/08/10 02:09:41;;;;;;;3.03;2.83;;;19.50;99.90;;;;;;5060602;28;20108;-75
2022/08/10 02:12:09;;;;;;;3.70;3.40;;;19.50;99.90;;;;;;5060304;28;20170;-77
2022/08/10 02:14:49;;;;;;;3.78;3.47;;;19.50;99.90;;;;;;5058166;28;20029;-74
2022/08/10 02:17:22;;;;;;;4.85;3.25;;;19.40;99.90;;;;;;5057281;28;20021;-73
2022/08/10 02:19:50;;;;;;;4.07;3.30;;;19.30;99.90;;;;;;5058503;28;20108;-76
2022/08/10 02:22:19;;;;;;;5.30;3.10;;;19.30;99.90;;;;;;5056937;28;20116;-75
2022/08/10 02:24:45;;;;;;;4.30;3.10;;;19.30;99.90;;;;;;5070133;28;20056;-76
2022/08/10 02:27:12;;;;;;;3.40;3.10;;;19.30;99.90;;;;;;5059371;28;20058;-76
2022/08/10 02:29:43;;;;;;;5.43;3.38;;;19.30;99.90;;;;;;5060636;28;20075;-76
2022/08/10 02:32:11;;;;;;;7.45;3.65;;;19.30;99.90;;;;;;5058263;28;20353;-75
2022/08/10 02:34:39;;;;;;;6.50;3.70;;;19.40;99.90;;;;;;5058488;28;20029;-76
2022/08/10 02:37:06;;;;;;;3.78;3.47;;;19.30;99.90;;;;;;5058400;28;20073;-76
2022/08/10 02:39:34;;;;;;;4.15;3.75;;;19.30;99.90;;;;;;5060578;28;20044;-76
2022/08/10 02:42:02;;;;;;;3.70;3.38;;;19.30;99.90;;;;;;5055248;28;20123;-77
2022/08/10 02:44:52;;;;;;;4.18;3.83;;;19.30;99.90;;;;;;5058986;28;20050;-75
2022/08/10 02:47:49;;;;;;;8.10;4.03;;;19.30;99.90;;;;;;5060802;28;20031;-76
2022/08/10 02:50:36;;;;;;;9.73;3.45;;;19.20;99.90;;;;;;5067178;28;20028;-77
2022/08/10 02:53:22;;;;;;;7.85;4.20;;;19.10;99.90;;;;;;5060030;28;20035;-78
2022/08/10 02:56:01;;;;;;;4.22;3.83;;;19.10;99.90;;;;;;5065250;28;20449;-77
2022/08/10 02:58:41;;;;;;;6.07;3.55;;;19.10;99.90;;;;;;5056960;28;20029;-75
2022/08/10 03:01:17;;;;;;;5.45;4.25;;;19.00;99.90;;;;;;5062729;28;20027;-79
2022/08/10 03:03:50;;;;;;;8.10;4.43;;;19.00;99.90;;;;;;5053955;28;20075;-76
2022/08/10 03:06:20;;;;;;;10.48;6.05;;;18.80;99.90;;;;;;5059207;28;20017;-77
2022/08/10 03:08:47;;;;;;;7.82;5.40;;;18.80;99.90;;;;;;5055783;28;20028;-74
2022/08/10 03:11:20;;;;;;;8.50;4.82;;;18.70;99.90;;;;;;5059490;28;20469;-78
2022/08/10 03:13:50;;;;;;;6.88;4.70;;;18.70;99.90;;;;;;5060145;28;20104;-76
2022/08/10 03:16:18;;;;;;;8.25;5.22;;;18.70;99.90;;;;;;5061054;28;20094;-76
2022/08/10 03:18:46;;;;;;;6.35;4.80;;;18.70;99.90;;;;;;5058092;28;20032;-76
2022/08/10 03:21:17;;;;;;;9.35;5.22;;;18.60;99.90;;;;;;5056733;28;20056;-75
2022/08/10 03:23:44;;;;;;;8.30;5.50;;;18.60;99.90;;;;;;5053902;28;20028;-78
2022/08/10 03:26:11;;;;;;;9.25;4.97;;;18.60;99.90;;;;;;5054472;28;20027;-73
2022/08/10 03:28:37;;;;;;;6.55;4.90;;;18.60;99.90;;;;;;5059948;28;20460;-76
2022/08/10 03:31:05;;;;;;;8.50;4.95;;;18.50;99.90;;;;;;5055401;28;20112;-79
2022/08/10 03:33:35;;;;;;;6.20;4.32;;;18.50;99.90;;;;;;5059809;28;20434;-76
2022/08/10 03:36:05;;;;;;;4.28;3.80;;;18.40;99.90;;;;;;5061713;28;20025;-78
2022/08/10 03:38:31;;;;;;;5.28;4.20;;;18.40;99.90;;;;;;5058044;28;20021;-78
2022/08/10 03:41:05;;;;;;;10.50;4.30;;;18.40;99.90;;;;;;5055283;28;20346;-78
2022/08/10 03:43:32;;;;;;;8.50;4.45;;;18.30;99.90;;;;;;5076976;28;20517;-76
2022/08/10 03:46:01;;;;;;;3.78;3.47;;;18.30;99.90;;;;;;5060562;28;20037;-75
2022/08/10 03:48:31;;;;;;;4.57;3.63;;;18.30;99.90;;;;;;5078639;28;20111;-77
2022/08/10 03:50:58;;;;;;;8.50;4.28;;;18.30;99.90;;;;;;5067758;28;20057;-75
2022/08/10 03:53:27;;;;;;;7.00;4.30;;;18.30;99.90;;;;;;5069963;28;20059;-75
2022/08/10 03:55:55;;;;;;;4.47;3.88;;;18.20;99.90;;;;;;5063047;28;20117;-76
2022/08/10 03:58:23;;;;;;;5.85;3.85;;;18.20;99.90;;;;;;5061238;28;20021;-75
2022/08/10 04:00:50;;;;;;;6.90;4.32;;;18.10;99.90;;;;;;5061524;28;20510;-76
2022/08/10 04:03:23;;;;;;;4.38;3.97;;;18.10;99.90;;;;;;5061791;28;20116;-75
2022/08/10 04:05:49;;;;;;;6.38;4.50;;;18.10;99.90;;;;;;5065144;28;20039;-76
2022/08/10 04:08:17;;;;;;;7.88;4.57;;;18.10;99.90;;;;;;5064724;28;20025;-76
2022/08/10 04:10:43;;;;;;;8.73;4.85;;;18.10;99.90;;;;;;5065924;28;20115;-75
2022/08/10 04:13:08;;;;;;;4.68;4.18;;;18.10;99.90;;;;;;5062643;28;20181;-76
2022/08/10 04:15:37;;;;;;;4.90;4.07;;;18.10;99.90;;;;;;5060521;28;20024;-75
2022/08/10 04:18:04;;;;;;;6.35;4.30;;;18.10;99.90;;;;;;5058761;28;20100;-76
2022/08/10 04:20:36;;;;;;;10.63;3.92;;;18.10;99.90;;;;;;5062649;28;20024;-75
2022/08/10 04:23:07;;;;;;;4.95;4.22;;;18.00;99.90;;;;;;5062227;28;20037;-76
2022/08/10 04:25:34;;;;;;;5.47;4.13;;;18.10;99.90;;;;;;5060021;28;20027;-75
2022/08/10 04:28:00;;;;;;;6.03;4.28;;;18.00;99.90;;;;;;5059230;28;20075;-77
2022/08/10 04:30:30;;;;;;;13.77;5.90;;;18.10;99.90;;;;;;5058943;28;20659;-76
2022/08/10 04:32:58;;;;;;;6.40;4.22;;;18.10;99.90;;;;;;5060758;28;20535;-76
2022/08/10 04:35:26;;;;;;;9.15;5.10;;;18.10;99.90;;;;;;5059369;28;20024;-75
2022/08/10 04:37:54;;;;;;;8.27;4.75;;;18.10;99.90;;;;;;5061477;28;20029;-75
2022/08/10 04:40:20;;;;;;;8.43;4.82;;;18.10;99.90;;;;;;5064102;28;20103;-76
2022/08/10 04:42:46;;;;;;;9.45;4.53;;;18.10;99.90;;;;;;5064624;28;20154;-76
2022/08/10 04:45:16;;;;;;;9.20;4.50;;;18.10;99.90;;;;;;5062529;28;20025;-76
2022/08/10 04:47:46;;;;;;;11.30;5.07;;;18.10;99.90;;;;;;5059619;28;20028;-77
2022/08/10 04:50:12;;;;;;;12.57;4.53;;;18.10;99.90;;;;;;5058235;28;20029;-75
2022/08/10 04:52:40;;;;;;;20.15;4.90;;;18.10;99.90;;;;;;5057687;28;20453;-76
2022/08/10 04:55:06;;;;;;;7.25;5.05;;;18.10;99.90;;;;;;5056857;28;20028;-77
2022/08/10 04:57:32;;;;;;;6.38;4.78;;;18.10;99.90;;;;;;5055600;28;20499;-75
2022/08/10 04:59:58;;;;;;;15.45;5.00;;;18.10;99.90;;;;;;5065287;28;20036;-76
2022/08/10 05:02:25;;;;;;;8.32;5.13;;;18.10;99.90;;;;;;5060663;28;20106;-77
2022/08/10 05:04:51;;;;;;;9.15;5.00;;;18.20;99.90;;;;;;5059676;28;20323;-76
2022/08/10 05:07:17;;;;;;;10.52;5.55;;;18.20;99.90;;;;;;5061432;28;20050;-77
2022/08/10 05:09:44;;;;;;;6.82;5.53;;;18.30;99.90;;;;;;5064198;28;20073;-75
2022/08/10 05:12:10;;;;;;;10.50;4.85;;;18.30;99.90;;;;;;5057769;28;20032;-76
2022/08/10 05:14:35;;;;;;;9.55;4.63;;;18.30;99.90;;;;;;5057447;28;20481;-76
2022/08/10 05:17:01;;;;;;;13.43;5.20;;;18.40;99.90;;;;;;5060687;28;20023;-77
2022/08/10 05:19:26;;;;;;;7.43;4.72;;;18.40;99.90;;;;;;5065005;28;20421;-76
2022/08/10 05:21:52;;;;;;;12.85;5.40;;;18.50;99.90;;;;;;5064110;28;20337;-74
2022/08/10 05:24:18;;;;;;;11.75;4.88;;;18.50;99.90;;;;;;5061012;28;20116;-75
2022/08/10 05:26:45;;;;;;;10.40;5.15;;;18.50;99.90;;;;;;5061348;28;20104;-77
2022/08/10 05:29:11;;;;;;;7.10;4.85;;;18.50;99.90;;;;;;5060351;28;20032;-76
2022/08/10 05:31:37;;;;;;;15.93;5.65;;;18.50;99.90;;;;;;5064156;28;20020;-76
2022/08/10 05:34:02;;;;;;;23.30;5.57;;;18.60;99.90;;;;;;5059141;28;20680;-76
2022/08/10 05:36:30;;;;;;;14.85;5.32;;;18.60;99.90;;;;;;5060479;28;20055;-77
2022/08/10 05:39:00;;;;;;;12.88;5.63;;;18.60;99.90;;;;;;5060881;28;20029;-75
2022/08/10 05:41:29;;;;;;;6.65;5.20;;;18.70;99.90;;;;;;5058775;28;20411;-75
2022/08/10 05:43:56;;;;;;;12.27;4.68;;;18.70;99.90;;;;;;5057816;28;20139;-76
2022/08/10 05:46:21;;;;;;;6.13;5.07;;;18.80;99.90;;;;;;5061472;28;20017;-75
2022/08/10 05:48:48;;;;;;;6.07;5.00;;;18.90;99.90;;;;;;5057546;28;20032;-75
2022/08/10 05:51:15;;;;;;;7.85;4.75;;;18.90;99.90;;;;;;5059727;28;20017;-77
2022/08/10 05:53:41;;;;;;;7.82;4.55;;;19.00;99.90;;;;;;5058838;28;20093;-78
2022/08/10 05:56:07;;;;;;;8.95;4.47;;;19.00;99.90;;;;;;5061289;28;20407;-76
2022/08/10 05:58:34;;;;;;;15.05;4.70;;;19.00;99.90;;;;;;5057781;28;20027;-76
2022/08/10 06:01:05;;;;;;;10.60;5.10;;;19.00;99.90;;;;;;5061210;28;20028;-77
2022/08/10 06:03:52;;;;;;;12.77;4.55;;;19.10;99.90;;;;;;5057371;28;20350;-78
2022/08/10 06:06:20;;;;;;;11.27;4.95;;;19.10;99.90;;;;;;5065164;28;20073;-77
2022/08/10 06:08:48;;;;;;;8.57;4.82;;;19.10;99.90;;;;;;5060078;28;20060;-77
2022/08/10 06:11:15;;;;;;;7.07;5.55;;;19.20;99.90;;;;;;5057341;28;20431;-75
2022/08/10 06:16:30;;;;;;;12.65;5.22;;;19.20;99.90;;;;;;5060618;28;20626;-74
2022/08/10 06:18:56;;;;;;;10.02;4.75;;;19.30;99.90;;;;;;5057062;28;20029;-77
2022/08/10 06:21:22;;;;;;;5.10;4.40;;;19.40;99.90;;;;;;5055511;28;20029;-74
2022/08/10 06:23:52;;;;;;;8.55;4.50;;;19.50;99.90;;;;;;5061428;28;20044;-75
2022/08/10 06:26:17;;;;;;;8.25;4.50;;;19.60;99.90;;;;;;5069024;28;20111;-74
2022/08/10 06:28:52;;;;;;;6.88;4.05;;;19.70;99.90;;;;;;5065704;28;20049;-76
2022/08/10 06:31:18;;;;;;;6.68;4.50;;;19.80;99.90;;;;;;5069635;28;20096;-76
2022/08/10 06:33:45;;;;;;;7.03;4.43;;;19.90;99.90;;;;;;5058879;28;20025;-78
2022/08/10 06:36:12;;;;;;;8.52;4.55;;;20.00;99.90;;;;;;5064432;28;20040;-77
2022/08/10 06:38:39;;;;;;;10.68;5.20;;;20.10;99.90;;;;;;5064457;28;20112;-76
2022/08/10 06:41:14;;;;;;;10.45;4.90;;;20.20;99.90;;;;;;5073879;28;20453;-81
2022/08/10 06:43:46;;;;;;;5.60;4.25;;;20.30;99.90;;;;;;5059046;28;20037;-77
2022/08/10 06:46:15;;;;;;;5.60;4.28;;;20.40;99.90;;;;;;5064594;28;20129;-77
2022/08/10 06:48:56;;;;;;;5.55;3.92;;;20.50;99.90;;;;;;5063230;28;20437;-78
2022/08/10 06:51:36;;;;;;;6.68;3.50;;;20.60;99.90;;;;;;5064004;28;20021;-76
2022/08/10 06:54:08;;;;;;;4.75;3.63;;;20.70;99.90;;;;;;5056386;28;20028;-79
2022/08/10 06:56:42;;;;;;;3.97;3.53;;;20.80;99.90;;;;;;5063003;28;20446;-77
2022/08/10 06:59:17;;;;;;;7.97;4.22;;;21.00;99.90;;;;;;5060007;28;20644;-76
2022/08/10 07:01:49;;;;;;;5.50;3.42;;;21.10;99.90;;;;;;5062256;28;20039;-76
2022/08/10 07:04:22;;;;;;;4.00;3.40;;;21.20;99.90;;;;;;5055498;28;20112;-76
2022/08/10 07:06:51;;;;;;;3.50;3.13;;;21.30;99.90;;;;;;5058934;28;20021;-76
2022/08/10 07:09:22;;;;;;;6.15;3.50;;;21.40;99.90;;;;;;5075111;28;20025;-77
2022/08/10 07:11:50;;;;;;;3.83;3.40;;;21.50;99.90;;;;;;5058768;28;20033;-76
2022/08/10 07:14:17;;;;;;;5.13;3.65;;;21.70;99.90;;;;;;5058899;28;20108;-75
2022/08/10 07:16:45;;;;;;;6.53;3.22;;;21.80;99.90;;;;;;5060497;28;20024;-76
2022/08/10 07:19:16;;;;;;;6.75;3.28;;;21.90;99.90;;;;;;5056214;28;20056;-76
2022/08/10 07:21:44;;;;;;;4.53;3.40;;;22.00;99.90;;;;;;5063031;28;20037;-78
2022/08/10 07:24:12;;;;;;;6.03;2.95;;;22.10;99.90;;;;;;5066017;28;20033;-78
2022/08/10 07:26:42;;;;;;;4.10;2.63;;;22.20;99.90;;;;;;5059525;28;20021;-76
2022/08/10 07:29:08;;;;;;;5.05;2.70;;;22.40;99.90;;;;;;5058331;28;20411;-78
2022/08/10 07:31:36;;;;;;;4.82;3.20;;;22.50;99.90;;;;;;5059387;28;20043;-76
2022/08/10 07:34:06;;;;;;;4.90;3.05;;;22.60;99.50;;;;;;5055293;28;20040;-76
2022/08/10 07:36:34;;;;;;;3.67;2.70;;;22.80;98.90;;;;;;5057191;28;20068;-77
2022/08/10 07:39:01;;;;;;;3.92;2.90;;;23.00;98.30;;;;;;5057264;28;20029;-76
2022/08/10 07:41:31;;;;;;;15.00;2.85;;;23.00;97.70;;;;;;5059894;28;20471;-75
2022/08/10 07:44:01;;;;;;;3.70;3.30;;;23.20;97.00;;;;;;5055031;28;20021;-77
2022/08/10 07:46:29;;;;;;;3.97;2.90;;;23.20;96.40;;;;;;5059562;28;20068;-76
2022/08/10 07:49:20;;;;;;;4.05;2.47;;;23.30;96.70;;;;;;5057508;28;20413;-76
2022/08/10 07:51:50;;;;;;;8.40;2.80;;;23.50;96.10;;;;;;5050762;28;20029;-76
2022/08/10 07:54:18;;;;;;;6.38;3.08;;;23.60;95.60;;;;;;5061945;28;20119;-78
2022/08/10 07:56:49;;;;;;;7.63;2.75;;;23.80;94.70;;;;;;5026185;28;20406;-77
2022/08/10 07:59:19;;;;;;;4.65;2.55;;;23.90;94.40;;;;;;5031573;28;20103;-76
2022/08/10 08:01:52;;;;;;;6.10;2.85;;;24.10;94.20;;;;;;5026705;28;20041;-76
2022/08/10 08:04:20;;;;;;;3.85;2.13;;;24.30;93.60;;;;;;5028118;28;20043;-78
2022/08/10 08:06:47;;;;;;;4.97;2.17;;;24.40;93.40;;;;;;5026134;28;20040;-76
2022/08/10 08:09:14;;;;;;;6.43;2.42;;;24.60;92.60;;;;;;5027814;28;20028;-76
2022/08/10 08:11:45;;;;;;;4.93;2.78;;;24.70;92.00;;;;;;5023724;28;20010;-76
2022/08/10 08:14:15;;;;;;;7.80;2.35;;;24.90;91.40;;;;;;5028309;28;20056;-76
2022/08/10 08:16:46;;;;;;;2.60;1.92;;;25.20;90.00;;;;;;5026420;28;20030;-76
2022/08/10 08:19:14;;;;;;;5.35;2.15;;;25.30;88.00;;;;;;5026426;28;20022;-77
2022/08/10 08:21:43;;;;;;;3.35;2.13;;;25.50;84.80;;;;;;5027456;28;20021;-74
2022/08/10 08:24:12;;;;;;;9.45;1.85;;;25.70;84.60;;;;;;5012218;28;20040;-78
2022/08/10 08:26:42;;;;;;;2.67;2.17;;;25.90;82.70;;;;;;5027824;28;20017;-76
2022/08/10 08:29:13;;;;;;;3.90;2.20;;;26.20;80.40;;;;;;5028378;28;20475;-77
2022/08/10 08:31:43;;;;;;;6.43;2.08;;;26.40;78.80;;;;;;5029935;28;20442;-77
2022/08/10 08:34:12;;;;;;;3.53;1.70;;;26.70;78.00;;;;;;5033132;28;20094;-76
2022/08/10 08:36:44;;;;;;;3.50;2.38;;;26.90;76.60;;;;;;5047997;28;20061;-76
2022/08/10 08:39:15;;;;;;;5.37;2.60;;;27.30;73.70;;;;;;5028259;28;20029;-77
2022/08/10 08:41:49;;;;;;;3.63;2.80;;;31.20;64.70;;;;;;5031785;28;20128;-78
2022/08/10 08:44:26;;;;;;;5.63;3.38;;;36.70;51.90;;;;;;5024909;28;20056;-73
2022/08/10 08:47:07;;;;;;;4.18;3.88;;;39.60;43.90;;;;;;5029899;28;20025;-77
2022/08/10 08:49:48;;;;;;;4.85;3.72;;;41.50;40.40;;;;;;5029645;28;20092;-75
2022/08/10 08:52:13;;;;;;;6.28;5.00;;;42.10;37.00;;;;;;5048420;28;20017;-77
2022/08/10 08:55:17;;;;;;;6.03;4.47;;;42.10;35.50;;;;;;5031265;28;20028;-76
2022/08/10 08:58:01;;;;;;;5.10;4.80;;;42.70;35.50;;;;;;5031597;28;20033;-78
2022/08/10 09:00:49;;;;;;;5.22;4.72;;;41.80;35.30;;;;;;5029854;28;20037;-77
2022/08/10 09:03:53;;;;;;;6.45;5.38;;;41.90;35.10;;;;;;5029232;28;20426;-75
2022/08/10 09:06:56;;;;;;;6.85;6.13;;;43.00;34.50;;;;;;5007389;28;20053;-75
2022/08/10 09:09:43;;;;;;;8.68;7.40;;;45.30;31.10;;;;;;5008801;28;20034;-76
2022/08/10 09:12:38;;;;;;;9.40;8.80;;;45.70;30.50;;;;;;5009099;28;20038;-78
2022/08/10 09:15:26;;;;;;;8.13;7.72;;;46.40;29.20;;;;;;5008412;28;20136;-76
2022/08/10 09:18:06;;;;;;;9.55;8.80;;;46.30;28.50;;;;;;5004770;28;20038;-77
2022/08/10 09:20:57;;;;;;;9.82;9.23;;;46.30;28.60;;;;;;5004443;28;20026;-76
2022/08/10 09:23:47;;;;;;;11.82;10.98;;;46.80;28.00;;;;;;5009007;28;20054;-76
2022/08/10 09:26:30;;;;;;;12.52;11.40;;;47.00;27.50;;;;;;5007663;28;20018;-78
2022/08/10 09:29:00;;;;;;;12.15;11.27;;;47.10;27.00;;;;;;5008044;28;20030;-77
2022/08/10 09:31:30;;;;;;;11.88;11.13;;;46.90;26.90;;;;;;4994053;28;20032;-80
2022/08/10 09:34:16;;;;;;;13.20;12.40;;;47.60;26.60;;;;;;5008799;28;20036;-75
2022/08/10 09:37:05;;;;;;;13.27;12.57;;;47.90;26.00;;;;;;5007813;28;20088;-77
2022/08/10 09:39:52;;;;;;;14.15;13.25;;;47.90;26.30;;;;;;4993659;28;20401;-76
2022/08/10 09:42:36;;;;;;;13.60;12.52;;;47.90;25.20;;;;;;5023709;28;20044;-76
2022/08/10 09:45:19;;;;;;;14.23;13.40;;;47.90;25.70;;;;;;5029454;28;20517;-76
2022/08/10 09:47:59;;;;;;;13.07;12.27;;;47.80;24.70;;;;;;5027422;28;20053;-76
2022/08/10 09:50:38;;;;;;;13.52;12.60;;;47.10;24.90;;;;;;5031817;28;20041;-78
2022/08/10 09:53:42;;;;;;;13.82;12.60;;;47.20;25.30;;;;;;5031600;28;20041;-76
2022/08/10 09:56:19;;;;;;;13.98;12.93;;;46.90;25.00;;;;;;5044961;28;20044;-75
2022/08/10 09:58:57;;;;;;;16.35;14.68;;;47.30;25.60;;;;;;5039720;28;20462;-77
2022/08/10 10:01:35;;;;;;;15.40;14.38;;;47.40;24.60;;;;;;5025145;28;20029;-76
2022/08/10 10:04:27;;;;;;;14.65;13.70;;;47.80;24.10;;;;;;5028900;28;20112;-76
2022/08/10 10:07:01;;;;;;;12.65;11.95;;;47.60;24.00;;;;;;5030484;28;20064;-79
2022/08/10 10:09:31;;;;;;;12.88;11.65;;;46.30;24.80;;;;;;5031001;28;20017;-76
2022/08/10 10:12:06;;;;;;;12.75;11.95;;;46.70;25.00;;;;;;5029842;28;20331;-76
2022/08/10 10:18:01;;;;;;;15.18;14.18;;;47.80;24.70;;;;;;5030982;28;20124;-79
2022/08/10 10:21:01;;;;;;;14.10;13.27;;;47.40;24.40;;;;;;5027933;28;20128;-76
2022/08/10 10:23:57;;;;;;;11.32;10.77;;;46.70;23.80;;;;;;5025399;28;20037;-78
2022/08/10 10:26:54;;;;;;;12.05;11.13;;;46.00;24.70;;;;;;5030320;28;20031;-78
2022/08/10 10:29:57;;;;;;;12.98;11.93;;;46.70;24.50;;;;;;5029357;28;20025;-76
2022/08/10 10:32:35;;;;;;;11.77;10.65;;;46.50;24.90;;;;;;5026139;28;20099;-76
2022/08/10 10:35:23;;;;;;;11.52;10.60;;;46.40;24.60;;;;;;5028677;28;20033;-76
2022/08/10 10:37:54;;;;;;;10.00;9.35;;;46.20;24.60;;;;;;5042514;28;20143;-76
2022/08/10 10:40:25;;;;;;;11.50;10.55;;;46.30;25.00;;;;;;5028471;28;20418;-77
2022/08/10 10:43:19;;;;;;;10.70;10.05;;;46.30;24.70;;;;;;5029472;28;20028;-78
2022/08/10 10:46:03;;;;;;;13.25;9.88;;;46.20;23.90;;;;;;5028670;28;20314;-76
2022/08/10 10:48:49;;;;;;;10.07;9.07;;;46.10;24.70;;;;;;5027557;28;20069;-77
2022/08/10 10:51:24;;;;;;;10.20;9.60;;;46.10;24.90;;;;;;5028969;28;20030;-75
2022/08/10 10:54:20;;;;;;;12.00;11.18;;;46.70;24.70;;;;;;5028279;28;20029;-77
2022/08/10 10:57:27;;;;;;;10.70;9.75;;;46.50;24.10;;;;;;5028704;28;20586;-77
2022/08/10 11:00:00;;;;;;;9.75;9.18;;;45.80;24.50;;;;;;5028633;28;20025;-77
2022/08/10 11:03:03;;;;;;;9.15;8.55;;;46.10;24.80;;;;;;5027694;28;20025;-74
2022/08/10 11:06:02;;;;;;;8.63;8.02;;;46.00;24.40;;;;;;5027058;28;20034;-76
2022/08/10 11:08:35;;;;;;;8.05;7.43;;;45.70;24.40;;;;;;5029371;28;20018;-75
2022/08/10 11:11:08;;;;;;;7.03;6.53;;;44.70;24.70;;;;;;5029392;28;20045;-76
2022/08/10 11:13:45;;;;;;;5.80;5.43;;;44.50;25.20;;;;;;5029711;28;20021;-75
2022/08/10 11:16:32;;;;;;;6.45;5.90;;;44.30;25.20;;;;;;5027402;28;20112;-76
2022/08/10 11:19:06;;;;;;;6.80;6.20;;;44.50;25.10;;;;;;5017381;28;20120;-76
2022/08/10 11:22:02;;;;;;;6.10;5.65;;;44.50;25.20;;;;;;5027354;28;20427;-78
2022/08/10 11:24:37;;;;;;;6.50;6.00;;;44.30;25.10;;;;;;5044539;28;20373;-76
2022/08/10 11:27:29;;;;;;;6.55;5.30;;;44.30;25.50;;;;;;5023604;28;20116;-74
2022/08/10 11:30:05;;;;;;;5.93;5.57;;;44.30;25.50;;;;;;5026351;28;20346;-76
2022/08/10 11:32:46;;;;;;;5.72;4.28;;;44.00;25.60;;;;;;5029027;28;20021;-77
2022/08/10 11:35:37;;;;;;;4.47;4.28;;;42.50;26.30;;;;;;5030005;28;20415;-75
2022/08/10 11:38:21;;;;;;;7.82;6.30;;;42.30;26.30;;;;;;5026072;28;20029;-79
2022/08/10 11:41:02;;;;;;;4.30;3.85;;;42.60;26.70;;;;;;5027822;28;20021;-77
2022/08/10 11:43:32;;;;;;;4.22;3.92;;;42.40;26.40;;;;;;5023729;28;20022;-75
2022/08/10 11:46:23;;;;;;;4.68;4.45;;;42.10;26.90;;;;;;5041198;28;20030;-76
2022/08/10 11:49:05;;;;;;;4.72;4.32;;;42.50;25.90;;;;;;5028635;28;20036;-78
2022/08/10 11:51:52;;;;;;;4.38;4.18;;;41.80;26.30;;;;;;5026096;28;20021;-79
2022/08/10 11:54:24;;;;;;;4.45;4.00;;;41.60;27.30;;;;;;5027651;28;20479;-77
2022/08/10 11:56:53;;;;;;;6.60;3.90;;;41.70;27.40;;;;;;5028430;28;20029;-77
2022/08/10 12:02:11;;;;;;;3.88;3.55;;;41.80;27.20;;;;;;5027850;28;20155;-76
2022/08/10 12:04:41;;;;;;;3.90;3.60;;;41.20;26.20;;;;;;5028266;28;20458;-75
2022/08/10 12:07:08;;;;;;;3.35;3.15;;;41.20;26.40;;;;;;5029201;28;20084;-74
2022/08/10 12:09:35;;;;;;;4.13;3.28;;;41.00;26.40;;;;;;5032885;28;20159;-76
2022/08/10 12:12:02;;;;;;;3.60;3.40;;;40.70;26.70;;;;;;5031575;28;20033;-76
2022/08/10 12:14:53;;;;;;;4.20;3.80;;;40.20;27.70;;;;;;5033065;28;20138;-76
2022/08/10 12:17:43;;;;;;;3.60;3.30;;;39.50;28.60;;;;;;5022659;28;20038;-76
2022/08/10 12:20:16;;;;;;;4.53;3.38;;;39.10;29.50;;;;;;5030763;28;20458;-77
2022/08/10 12:22:54;;;;;;;4.40;3.58;;;38.70;29.60;;;;;;5032624;28;20029;-76
2022/08/10 12:25:35;;;;;;;5.72;4.03;;;38.70;29.50;;;;;;5030284;28;20041;-74
2022/08/10 12:28:27;;;;;;;4.85;3.40;;;38.70;29.40;;;;;;5031999;28;20032;-77
2022/08/10 12:30:58;;;;;;;3.57;3.37;;;38.70;29.60;;;;;;5029511;28;20021;-74
2022/08/10 12:33:42;;;;;;;3.47;3.28;;;38.90;29.50;;;;;;5031504;28;20121;-76
2022/08/10 12:36:35;;;;;;;4.30;3.80;;;38.90;29.40;;;;;;5030365;28;20030;-76
2022/08/10 12:39:03;;;;;;;;;;;39.00;29.60;;;;;;5032648;28;20029;-77
2022/08/10 12:41:32;;;;;;;3.70;3.50;;;38.90;29.60;;;;;;5030707;28;19967;-76
2022/08/10 12:44:05;;;;;;;3.13;2.80;;;39.00;29.70;;;;;;5029686;28;20223;-78
2022/08/10 12:46:46;;;;;;;3.58;3.38;;;38.90;29.40;;;;;;5032319;28;20025;-77
2022/08/10 12:49:35;;;;;;;14.52;8.88;;;39.00;29.30;;;;;;5029923;28;20452;-75
2022/08/10 12:52:10;;;;;;;30.95;13.40;;;39.30;29.20;;;;;;5030863;28;20567;-75
2022/08/10 12:54:40;;;;;;;3.58;3.15;;;39.40;28.90;;;;;;5031165;28;20029;-76
2022/08/10 12:57:15;;;;;;;6.65;2.67;;;39.10;28.70;;;;;;5029102;28;20107;-76
2022/08/10 12:59:45;;;;;;;3.53;3.20;;;39.10;28.80;;;;;;5030737;28;20022;-73
2022/08/10 13:02:23;;;;;;;3.10;2.80;;;39.40;28.90;;;;;;5030095;28;20025;-73
2022/08/10 13:04:50;;;;;;;3.22;2.92;;;39.20;28.40;;;;;;5030298;28;20029;-75
2022/08/10 13:07:44;;;;;;;3.17;2.97;;;39.30;28.40;;;;;;5030337;28;20013;-77
2022/08/10 13:10:17;;;;;;;3.00;2.80;;;39.10;28.70;;;;;;5028627;28;20077;-74
2022/08/10 13:12:51;;;;;;;6.05;3.20;;;39.00;29.00;;;;;;5030095;28;20045;-74
2022/08/10 13:15:27;;;;;;;4.35;2.80;;;39.20;29.50;;;;;;5030504;28;20026;-76
2022/08/10 13:17:56;;;;;;;5.93;2.88;;;38.90;29.10;;;;;;5028389;28;20044;-76
2022/08/10 13:20:35;;;;;;;3.63;2.70;;;38.80;29.10;;;;;;5030120;28;20026;-75
2022/08/10 13:23:08;;;;;;;3.17;2.88;;;38.70;29.10;;;;;;5030038;28;20037;-75
2022/08/10 13:25:36;;;;;;;4.43;2.80;;;38.70;28.90;;;;;;5028755;28;20033;-75
2022/08/10 13:28:06;;;;;;;3.30;3.10;;;39.00;29.20;;;;;;5027425;28;20110;-74